Saskia A — TCA3543 — position and weather

sailwx.info

Track history (hours):
 
Tides and Currents Weather Stations Pressure Air Temp Water Temp Dewpoint Dewpoint Depression Visibility Wind Speed Wind Dir Waves Ship Positions

Saskia A

Last reported at 2018-Jul-18 09:19 UTC. Time now 2018-Jul-21 21:16 UTC.
Position N 32°59' E 030°31'.

Length 222 m; draft 12 m.

Type: Ship (hazmat cat A). MMSI: 271044177.

Date/timePositionNaut miles runAvg speedWind from/ knotsBaromVisibWave heightAir tempDewpointWater temp
2018-Jul-18 09:19N 32°59' E 030°31'251 5.7
2018-Jul-16 13:08N 36°03' E 033°58'14110.3
2018-Jul-15 23:25N 35°56' E 031°04'1010.2
2018-Jul-15 22:29N 35°56' E 030°52'610.3
2018-Jul-15 21:52N 35°57' E 030°44'410.2
2018-Jul-15 21:30N 35°57' E 030°40'510.2
2018-Jul-15 21:00N 35°58' E 030°34'510.3
2018-Jul-15 20:30N 35°58' E 030°27'7910.8
2018-Jul-15 13:08N 36°18' E 028°52'213.9
2018-Jul-15 13:00N 36°19' E 028°50'24412.3
2018-Jul-14 17:12N 37°15' E 023°54'513.9
2018-Jul-14 16:51N 37°20' E 023°52'514.0
2018-Jul-14 16:30N 37°25' E 023°50'714.0
2018-Jul-14 16:01N 37°31' E 023°47'714.0
2018-Jul-14 15:30N 37°38' E 023°43'714.1
2018-Jul-14 15:00N 37°44' E 023°40'713.9
2018-Jul-14 14:30N 37°50' E 023°36'7 6.6
2018-Jul-14 13:30N 37°57' E 023°36'0 0.0
2018-Jul-14 13:00N 37°57' E 023°36'0 0.0
2018-Jul-14 12:30N 37°57' E 023°36'0 0.0
2018-Jul-14 12:00N 37°57' E 023°36'0 0.0
2018-Jul-14 11:30N 37°57' E 023°36'0 0.0
2018-Jul-14 11:00N 37°57' E 023°36'0 0.0
2018-Jul-14 10:30N 37°57' E 023°36'0 0.0
2018-Jul-14 10:00N 37°57' E 023°36'0 0.0
2018-Jul-14 09:31N 37°57' E 023°36'0 0.0
2018-Jul-14 09:00N 37°57' E 023°36'0 0.0
2018-Jul-14 08:30N 37°57' E 023°36'0 0.0
2018-Jul-14 08:01N 37°57' E 023°36'0 0.0
2018-Jul-14 07:30N 37°57' E 023°36'0 0.0
2018-Jul-14 07:00N 37°57' E 023°36'0 0.0
2018-Jul-14 06:30N 37°57' E 023°36'0 0.0
2018-Jul-14 06:00N 37°57' E 023°36'0 0.0
2018-Jul-14 05:30N 37°57' E 023°36'0 0.0
2018-Jul-14 05:00N 37°57' E 023°36'0 0.0
2018-Jul-14 04:30N 37°57' E 023°36'0 0.0
2018-Jul-14 04:00N 37°57' E 023°36'0 0.0
2018-Jul-14 03:30N 37°57' E 023°36'0 0.0
2018-Jul-14 03:00N 37°57' E 023°36'0 0.0
2018-Jul-14 02:30N 37°57' E 023°36'0 0.0
2018-Jul-14 02:00N 37°57' E 023°36'0 0.0
2018-Jul-14 01:30N 37°57' E 023°36'0 0.0
2018-Jul-14 01:00N 37°57' E 023°36'0 0.0
2018-Jul-14 00:30N 37°57' E 023°36'1 1.6
2018-Jul-14 00:00N 37°56' E 023°36'1 2.1
2018-Jul-13 23:30N 37°55' E 023°36'1 1.4
2018-Jul-13 23:00N 37°55' E 023°36'1 1.1
2018-Jul-13 22:30N 37°54' E 023°35'0 0.9
2018-Jul-13 22:00N 37°54' E 023°35'1 1.5
2018-Jul-13 21:30N 37°53' E 023°35'2 3.9
2018-Jul-13 21:00N 37°52' E 023°33'2 3.2
2018-Jul-13 20:30N 37°51' E 023°31'0 0.2
2018-Jul-13 20:00N 37°52' E 023°31'0 0.0
2018-Jul-13 19:30N 37°52' E 023°31'0 0.0
2018-Jul-13 19:00N 37°52' E 023°31'0 0.0
2018-Jul-13 18:30N 37°52' E 023°31'0 0.1
2018-Jul-13 18:00N 37°52' E 023°31'0 0.0
2018-Jul-13 17:30N 37°52' E 023°31'0 0.0
2018-Jul-13 17:00N 37°52' E 023°31'0 0.0
2018-Jul-13 16:30N 37°52' E 023°31'0 0.1
2018-Jul-13 16:00N 37°52' E 023°31'0 0.0
2018-Jul-13 15:30N 37°52' E 023°31'0 0.0
2018-Jul-13 15:00N 37°52' E 023°31'0 0.0
2018-Jul-13 14:30N 37°52' E 023°31'0 0.0
2018-Jul-13 13:30N 37°52' E 023°31'0 0.0
2018-Jul-13 13:00N 37°52' E 023°31'0 0.2
2018-Jul-13 12:30N 37°52' E 023°31'0 0.1
2018-Jul-13 12:00N 37°52' E 023°31'0 0.0
2018-Jul-13 11:30N 37°51' E 023°32'0 0.0
2018-Jul-13 11:00N 37°51' E 023°32'0 0.0
2018-Jul-13 10:30N 37°51' E 023°32'0 0.0
2018-Jul-13 10:00N 37°51' E 023°32'0 0.0
2018-Jul-13 09:30N 37°51' E 023°32'0 0.0
2018-Jul-13 09:00N 37°51' E 023°32'0 0.0
2018-Jul-13 08:30N 37°51' E 023°32'0 0.0
2018-Jul-13 08:00N 37°51' E 023°32'0 0.0
2018-Jul-13 07:30N 37°51' E 023°32'0 0.0
2018-Jul-13 07:00N 37°51' E 023°32'0 0.0
2018-Jul-13 06:30N 37°51' E 023°32'0 0.0
2018-Jul-13 06:00N 37°51' E 023°32'0 0.0
2018-Jul-13 05:30N 37°51' E 023°32'0 0.0
2018-Jul-13 05:00N 37°51' E 023°31'0 0.0
2018-Jul-13 04:30N 37°51' E 023°31'0 0.0
2018-Jul-13 04:00N 37°51' E 023°31'0 0.0
2018-Jul-13 03:30N 37°51' E 023°31'0 0.0
2018-Jul-13 03:00N 37°51' E 023°31'0 0.0
2018-Jul-13 02:30N 37°51' E 023°31'0 0.0
2018-Jul-13 02:00N 37°51' E 023°31'0 0.0
2018-Jul-13 01:30N 37°51' E 023°31'0 0.0
2018-Jul-13 01:00N 37°51' E 023°31'0 0.1
2018-Jul-13 00:30N 37°51' E 023°31'0 0.1
2018-Jul-13 00:00N 37°51' E 023°31'0 0.1
2018-Jul-12 23:30N 37°51' E 023°31'0 0.0
2018-Jul-12 23:00N 37°51' E 023°31'0 0.0
2018-Jul-12 22:30N 37°51' E 023°31'0 0.0
2018-Jul-12 22:00N 37°51' E 023°31'0 0.0
2018-Jul-12 21:30N 37°51' E 023°31'0 0.0
2018-Jul-12 21:00N 37°51' E 023°31'0 0.0
2018-Jul-12 20:30N 37°51' E 023°31'0 0.1
2018-Jul-12 20:00N 37°52' E 023°31'0 0.1
2018-Jul-12 19:30N 37°52' E 023°31'0 0.1
2018-Jul-12 19:00N 37°52' E 023°31'0 0.1
2018-Jul-12 18:30N 37°52' E 023°31'0 0.0
2018-Jul-12 18:00N 37°52' E 023°31'0 0.0
2018-Jul-12 17:30N 37°52' E 023°31'0 0.0
2018-Jul-12 17:00N 37°52' E 023°31'0 0.0
2018-Jul-12 16:30N 37°52' E 023°31'0 0.0
2018-Jul-12 16:00N 37°52' E 023°31'0 0.1
2018-Jul-12 15:30N 37°52' E 023°31'0 0.2
2018-Jul-12 15:00N 37°52' E 023°31'0 0.1
2018-Jul-12 14:31N 37°51' E 023°31'0 0.0
2018-Jul-12 14:01N 37°51' E 023°31'0 0.1
2018-Jul-12 13:31N 37°51' E 023°32'0 0.0
2018-Jul-12 13:01N 37°51' E 023°32'0 0.0
2018-Jul-12 12:30N 37°51' E 023°32'0 0.0
2018-Jul-12 12:00N 37°51' E 023°32'0 0.0
2018-Jul-12 11:30N 37°51' E 023°32'0 0.8
2018-Jul-12 11:00N 37°51' E 023°32'2 4.2
2018-Jul-12 10:31N 37°51' E 023°35'4 7.6
2018-Jul-12 10:01N 37°50' E 023°39'510.5
2018-Jul-12 09:30N 37°45' E 023°43'713.3
2018-Jul-12 09:01N 37°40' E 023°47'713.7
2018-Jul-12 08:30N 37°37' E 023°55'713.6
2018-Jul-12 08:00N 37°36' E 024°03'1213.1
2018-Jul-12 07:06N 37°44' E 024°15'113.7
2018-Jul-12 07:00N 37°45' E 024°16'713.9
2018-Jul-12 06:30N 37°49' E 024°24'814.0
2018-Jul-12 05:54N 37°54' E 024°32'  
2018-Jul-09 14:40N 39°34' E 025°47'710.5
2018-Jul-09 14:01N 39°41' E 025°49'010.5
2018-Jul-09 14:00N 39°41' E 025°49'  
Track history (hours):
 
Tides and Currents Weather Stations Pressure Air Temp Water Temp Dewpoint Dewpoint Depression Visibility Wind Speed Wind Dir Waves Ship Positions

Saskia A

Last reported at 2018-Jul-18 09:19 UTC. Time now 2018-Jul-21 21:16 UTC.
Position N 32°59' E 030°31'.

Length 222 m; draft 12 m.

Type: Ship (hazmat cat A). MMSI: 271044177.

Date/timePositionNaut miles runAvg speedWind from/ knotsBaromVisibWave heightAir tempDewpointWater temp
2018-Jul-18 09:19N 32°59' E 030°31'251 5.7
2018-Jul-16 13:08N 36°03' E 033°58'14110.3
2018-Jul-15 23:25N 35°56' E 031°04'1010.2
2018-Jul-15 22:29N 35°56' E 030°52'610.3
2018-Jul-15 21:52N 35°57' E 030°44'410.2
2018-Jul-15 21:30N 35°57' E 030°40'510.2
2018-Jul-15 21:00N 35°58' E 030°34'510.3
2018-Jul-15 20:30N 35°58' E 030°27'7910.8
2018-Jul-15 13:08N 36°18' E 028°52'213.9
2018-Jul-15 13:00N 36°19' E 028°50'24412.3
2018-Jul-14 17:12N 37°15' E 023°54'513.9
2018-Jul-14 16:51N 37°20' E 023°52'514.0
2018-Jul-14 16:30N 37°25' E 023°50'714.0
2018-Jul-14 16:01N 37°31' E 023°47'714.0
2018-Jul-14 15:30N 37°38' E 023°43'714.1
2018-Jul-14 15:00N 37°44' E 023°40'713.9
2018-Jul-14 14:30N 37°50' E 023°36'7 6.6
2018-Jul-14 13:30N 37°57' E 023°36'0 0.0
2018-Jul-14 13:00N 37°57' E 023°36'0 0.0
2018-Jul-14 12:30N 37°57' E 023°36'0 0.0
2018-Jul-14 12:00N 37°57' E 023°36'0 0.0
2018-Jul-14 11:30N 37°57' E 023°36'0 0.0
2018-Jul-14 11:00N 37°57' E 023°36'0 0.0
2018-Jul-14 10:30N 37°57' E 023°36'0 0.0
2018-Jul-14 10:00N 37°57' E 023°36'0 0.0
2018-Jul-14 09:31N 37°57' E 023°36'0 0.0
2018-Jul-14 09:00N 37°57' E 023°36'0 0.0
2018-Jul-14 08:30N 37°57' E 023°36'0 0.0
2018-Jul-14 08:01N 37°57' E 023°36'0 0.0
2018-Jul-14 07:30N 37°57' E 023°36'0 0.0
2018-Jul-14 07:00N 37°57' E 023°36'0 0.0
2018-Jul-14 06:30N 37°57' E 023°36'0 0.0
2018-Jul-14 06:00N 37°57' E 023°36'0 0.0
2018-Jul-14 05:30N 37°57' E 023°36'0 0.0
2018-Jul-14 05:00N 37°57' E 023°36'0 0.0
2018-Jul-14 04:30N 37°57' E 023°36'0 0.0
2018-Jul-14 04:00N 37°57' E 023°36'0 0.0
2018-Jul-14 03:30N 37°57' E 023°36'0 0.0
2018-Jul-14 03:00N 37°57' E 023°36'0 0.0
2018-Jul-14 02:30N 37°57' E 023°36'0 0.0
2018-Jul-14 02:00N 37°57' E 023°36'0 0.0
2018-Jul-14 01:30N 37°57' E 023°36'0 0.0
2018-Jul-14 01:00N 37°57' E 023°36'0 0.0
2018-Jul-14 00:30N 37°57' E 023°36'1 1.6
2018-Jul-14 00:00N 37°56' E 023°36'1 2.1
2018-Jul-13 23:30N 37°55' E 023°36'1 1.4
2018-Jul-13 23:00N 37°55' E 023°36'1 1.1
2018-Jul-13 22:30N 37°54' E 023°35'0 0.9
2018-Jul-13 22:00N 37°54' E 023°35'1 1.5
2018-Jul-13 21:30N 37°53' E 023°35'2 3.9
2018-Jul-13 21:00N 37°52' E 023°33'2 3.2
2018-Jul-13 20:30N 37°51' E 023°31'0 0.2
2018-Jul-13 20:00N 37°52' E 023°31'0 0.0
2018-Jul-13 19:30N 37°52' E 023°31'0 0.0
2018-Jul-13 19:00N 37°52' E 023°31'0 0.0
2018-Jul-13 18:30N 37°52' E 023°31'0 0.1
2018-Jul-13 18:00N 37°52' E 023°31'0 0.0
2018-Jul-13 17:30N 37°52' E 023°31'0 0.0
2018-Jul-13 17:00N 37°52' E 023°31'0 0.0
2018-Jul-13 16:30N 37°52' E 023°31'0 0.1
2018-Jul-13 16:00N 37°52' E 023°31'0 0.0
2018-Jul-13 15:30N 37°52' E 023°31'0 0.0
2018-Jul-13 15:00N 37°52' E 023°31'0 0.0
2018-Jul-13 14:30N 37°52' E 023°31'0 0.0
2018-Jul-13 13:30N 37°52' E 023°31'0 0.0
2018-Jul-13 13:00N 37°52' E 023°31'0 0.2
2018-Jul-13 12:30N 37°52' E 023°31'0 0.1
2018-Jul-13 12:00N 37°52' E 023°31'0 0.0
2018-Jul-13 11:30N 37°51' E 023°32'0 0.0
2018-Jul-13 11:00N 37°51' E 023°32'0 0.0
2018-Jul-13 10:30N 37°51' E 023°32'0 0.0
2018-Jul-13 10:00N 37°51' E 023°32'0 0.0
2018-Jul-13 09:30N 37°51' E 023°32'0 0.0
2018-Jul-13 09:00N 37°51' E 023°32'0 0.0
2018-Jul-13 08:30N 37°51' E 023°32'0 0.0
2018-Jul-13 08:00N 37°51' E 023°32'0 0.0
2018-Jul-13 07:30N 37°51' E 023°32'0 0.0
2018-Jul-13 07:00N 37°51' E 023°32'0 0.0
2018-Jul-13 06:30N 37°51' E 023°32'0 0.0
2018-Jul-13 06:00N 37°51' E 023°32'0 0.0
2018-Jul-13 05:30N 37°51' E 023°32'0 0.0
2018-Jul-13 05:00N 37°51' E 023°31'0 0.0
2018-Jul-13 04:30N 37°51' E 023°31'0 0.0
2018-Jul-13 04:00N 37°51' E 023°31'0 0.0
2018-Jul-13 03:30N 37°51' E 023°31'0 0.0
2018-Jul-13 03:00N 37°51' E 023°31'0 0.0
2018-Jul-13 02:30N 37°51' E 023°31'0 0.0
2018-Jul-13 02:00N 37°51' E 023°31'0 0.0
2018-Jul-13 01:30N 37°51' E 023°31'0 0.0
2018-Jul-13 01:00N 37°51' E 023°31'0 0.1
2018-Jul-13 00:30N 37°51' E 023°31'0 0.1
2018-Jul-13 00:00N 37°51' E 023°31'0 0.1
2018-Jul-12 23:30N 37°51' E 023°31'0 0.0
2018-Jul-12 23:00N 37°51' E 023°31'0 0.0
2018-Jul-12 22:30N 37°51' E 023°31'0 0.0
2018-Jul-12 22:00N 37°51' E 023°31'0 0.0
2018-Jul-12 21:30N 37°51' E 023°31'0 0.0
2018-Jul-12 21:00N 37°51' E 023°31'0 0.0
2018-Jul-12 20:30N 37°51' E 023°31'0 0.1
2018-Jul-12 20:00N 37°52' E 023°31'0 0.1
2018-Jul-12 19:30N 37°52' E 023°31'0 0.1
2018-Jul-12 19:00N 37°52' E 023°31'0 0.1
2018-Jul-12 18:30N 37°52' E 023°31'0 0.0
2018-Jul-12 18:00N 37°52' E 023°31'0 0.0
2018-Jul-12 17:30N 37°52' E 023°31'0 0.0
2018-Jul-12 17:00N 37°52' E 023°31'0 0.0
2018-Jul-12 16:30N 37°52' E 023°31'0 0.0
2018-Jul-12 16:00N 37°52' E 023°31'0 0.1
2018-Jul-12 15:30N 37°52' E 023°31'0 0.2
2018-Jul-12 15:00N 37°52' E 023°31'0 0.1
2018-Jul-12 14:31N 37°51' E 023°31'0 0.0
2018-Jul-12 14:01N 37°51' E 023°31'0 0.1
2018-Jul-12 13:31N 37°51' E 023°32'0 0.0
2018-Jul-12 13:01N 37°51' E 023°32'0 0.0
2018-Jul-12 12:30N 37°51' E 023°32'0 0.0
2018-Jul-12 12:00N 37°51' E 023°32'0 0.0
2018-Jul-12 11:30N 37°51' E 023°32'0 0.8
2018-Jul-12 11:00N 37°51' E 023°32'2 4.2
2018-Jul-12 10:31N 37°51' E 023°35'4 7.6
2018-Jul-12 10:01N 37°50' E 023°39'510.5
2018-Jul-12 09:30N 37°45' E 023°43'713.3
2018-Jul-12 09:01N 37°40' E 023°47'713.7
2018-Jul-12 08:30N 37°37' E 023°55'713.6
2018-Jul-12 08:00N 37°36' E 024°03'1213.1
2018-Jul-12 07:06N 37°44' E 024°15'113.7
2018-Jul-12 07:00N 37°45' E 024°16'713.9
2018-Jul-12 06:30N 37°49' E 024°24'814.0
2018-Jul-12 05:54N 37°54' E 024°32'  
2018-Jul-09 14:40N 39°34' E 025°47'710.5
2018-Jul-09 14:01N 39°41' E 025°49'010.5
2018-Jul-09 14:00N 39°41' E 025°49'  

Dump ship's entire track history